Terminal Aerodrome Forecast
Issued by NWS Twin Cities, MN

Home | Current Version | Previous Version | Graphics & Text | Print | Product List | Glossary On
Versions: 1 2 3 4 5 6 7 8 9 10 11 12 13 14 15 16
000
FTUS43 KMPX 260900 AAB
TAFSTC
TAF AMD
KSTC 260946Z 2610/2706 30002KT 3SM BR SKC
      TEMPO 2610/2612 1/4SM FG VV004
     FM261200 28005KT 6SM BR FEW008
     FM261800 26011KT P6SM SKC
     FM262000 26012G18KT P6SM SCT050 PROB30 2623/2702 P6SM -SHRA
      BKN250
     FM270200 27009KT P6SM SCT050=

USA.gov is the U.S. government's official web portal to all federal, state and local government web resources and services.